LFBI/PIS METAR and TAF weather

Enter ICAO airport designator
Station Type Date Time Source
LFBI METAR 2022/12/08 13:00 UTC NOAA

LFBI 081300Z AUTO 06010KT 020V090 9999 OVC014 03/M00 Q1007 BECMG BKN018


Station Type Date Time Source
LFBI Decoded METAR 2022/12/08 13:00 UTC NOAA

Poitiers, France (LFBI) 46-35N 000-19E 120M
Dec 08, 2022 - 08:00 AM EST / 2022.12.08 1300 UTC
Wind: from the ENE (060 degrees) at 12 MPH (10 KT) (direction variable):0
Visibility: greater than 7 mile(s):0
Sky conditions: overcast
Temperature: 37 F (3 C)
Dew Point: 32 F (0 C)
Relative Humidity: 80%
Pressure (altimeter): 29.74 in. Hg (1007 hPa)
ob: LFBI 081300Z AUTO 06010KT 020V090 9999 OVC014 03/M00 Q1007 BECMG BKN018
cycle: 13

Station Type Date Time Source
LFBI TAF 2022/12/08 12:42 UTC NOAA

TAF LFBI 081100Z 0812/0912 06008KT 9999 OVC012
BECMG 0812/0815 BKN018
BECMG 0818/0821 BKN008 PROB40
TEMPO 0903/0910 3000 BR OVC002
BECMG 0910/0912 BKN012

Example: see airport list